Nodine, Minnesota
Current Conditions -  °F | °C
As of 10:53 AM on Saturday 22 Nov 2014 (Local Time) from KLSE Reporting Station
Haze Haze  
Wind Chill: 31°   Ceiling: 600
Heat Index: 37°   Visibility: 2mi
Dew Point: 35°   Wind: 8mph
Humidity: 93%   Direction: 180°S
Pressure: 29.81"   Gusts: NA
Location:  43.9163°N, 91.4255°W
Report Text: KLSE 221653Z 18007KT 2SM BR OVC006 03/02 A2981 RMK AO2 SLP106 T00280017
Loading
Personal Weather Stations






























Interactive Weather Map New forecast layout! Learn more

10-Day Weather Forecast

Advertisements
Track Severe Weather on mobile